Chaparral, New Mexico
Current Conditions -  °F | °C
As of 12:58 AM on Saturday 29 Nov 2014 (Local Time) from KBIF Reporting Station
Clear Clear  
Wind Chill: 36°   Ceiling: Unl
Heat Index: 36°   Visibility: 10mi
Dew Point: 16°   Wind: 2mph
Humidity: 44%   Direction: 360°N
Pressure: 30.05"   Gusts: NA
Location:  32.03°N, 106.4°W
Report Text: KBIF 290758Z AUTO 36002KT 10SM CLR 02/M09 A3005 RMK AO2 SLP150 T00201090 $
Loading
Personal Weather Stations






























Interactive Weather Map New forecast layout! Learn more

10-Day Weather Forecast

Advertisements
Track Severe Weather on mobile